Time;durP1;ratioP1;P1;durP2;ratioP2;P2;SDS_P1;SDS_P2;PMS_P1;PMS_P2;Temp;Humidity;BMP_temperature;BMP_pressure;BME280_temperature;BME280_humidity;BME280_pressure;Samples;Min_cycle;Max_cycle;Signal;HPM_P1;HPM_P2
2022/04/21 00:00:44;;;;;;;16.67;10.63;;;;;;;6.66;89.96;101627.72;5094702;28;20029;-72
2022/04/21 00:03:09;;;;;;;14.75;10.60;;;;;;;6.64;90.46;101628.75;5094403;28;20445;-72
2022/04/21 00:05:35;;;;;;;13.20;11.10;;;;;;;6.58;90.42;101629.97;5094351;28;20028;-72
2022/04/21 00:08:01;;;;;;;15.25;10.90;;;;;;;6.53;90.44;101632.03;5094504;28;20105;-71
2022/04/21 00:10:27;;;;;;;17.00;10.50;;;;;;;6.46;90.33;101623.63;5094503;28;20032;-75
2022/04/21 00:12:54;;;;;;;16.10;10.30;;;;;;;6.42;90.87;101613.31;5094219;28;20032;-72
2022/04/21 00:15:20;;;;;;;13.98;10.98;;;;;;;6.38;91.24;101611.84;5094009;28;20472;-73
2022/04/21 00:17:45;;;;;;;15.27;10.93;;;;;;;6.33;91.08;101615.59;5094197;28;20081;-71
2022/04/21 00:20:12;;;;;;;16.33;11.32;;;;;;;6.28;91.50;101611.53;5076500;28;20348;-71
2022/04/21 00:25:22;;;;;;;14.05;11.10;;;;;;;6.18;92.06;101605.97;5094006;28;20492;-71
2022/04/21 00:27:48;;;;;;;16.15;10.82;;;;;;;6.14;91.96;101607.91;5094295;28;20040;-70
2022/04/21 00:30:16;;;;;;;17.45;11.15;;;;;;;6.12;92.41;101611.59;5094190;28;20028;-73
2022/04/21 00:32:43;;;;;;;15.52;11.20;;;;;;;6.10;92.23;101613.47;5075856;28;20028;-73
2022/04/21 00:35:11;;;;;;;17.25;11.32;;;;;;;6.05;92.32;101605.00;5094281;28;20119;-72
2022/04/21 00:38:03;;;;;;;16.85;11.35;;;;;;;6.00;92.63;101610.53;5093530;28;20028;-71
2022/04/21 00:40:29;;;;;;;;;;;;;;;5.95;92.49;101612.56;5089396;28;20044;-72
2022/04/21 00:42:56;;;;;;;16.83;10.55;;;;;;;5.90;92.82;101612.84;5093923;28;20010;-72
2022/04/21 00:45:22;;;;;;;16.10;10.85;;;;;;;5.87;93.13;101610.38;5075719;28;20029;-71
2022/04/21 00:47:49;;;;;;;13.68;10.52;;;;;;;5.80;92.63;101607.22;5093597;28;20036;-72
2022/04/21 00:50:22;;;;;;;16.25;11.43;;;;;;;5.75;92.89;101608.47;5092816;28;20494;-72
2022/04/21 00:52:49;;;;;;;16.00;11.15;;;;;;;5.70;92.75;101611.34;5075540;28;20059;-72
2022/04/21 00:55:15;;;;;;;14.50;11.32;;;;;;;5.66;92.84;101604.56;5075859;28;20040;-72
2022/04/21 00:57:42;;;;;;;16.25;11.63;;;;;;;5.63;93.77;101608.22;5093984;28;20043;-71
2022/04/21 01:00:08;;;;;;;17.58;11.18;;;;;;;5.59;93.62;101605.84;5093482;28;20032;-72
2022/04/21 01:05:34;;;;;;;17.15;12.00;;;;;;;5.51;93.80;101603.66;5011209;28;20410;-73
2022/04/21 01:08:05;;;;;;;15.98;10.65;;;;;;;5.48;93.47;101602.03;5076015;28;20044;-71
2022/04/21 01:10:32;;;;;;;14.38;11.05;;;;;;;5.48;94.21;101599.38;5093362;28;20036;-72
2022/04/21 01:12:59;;;;;;;19.75;11.48;;;;;;;5.46;94.67;101603.03;5093979;28;20024;-72
2022/04/21 01:15:24;;;;;;;14.55;11.18;;;;;;;5.45;94.68;101604.00;5094035;28;20040;-71
2022/04/21 01:17:52;;;;;;;16.52;11.68;;;;;;;5.40;94.54;101601.59;5093560;28;20464;-71
2022/04/21 01:20:19;;;;;;;16.58;11.10;;;;;;;5.36;94.73;101602.72;5094097;28;20093;-71
2022/04/21 01:22:45;;;;;;;16.08;10.90;;;;;;;5.32;94.53;101595.91;5093406;28;20055;-72
2022/04/21 01:25:11;;;;;;;16.80;11.35;;;;;;;5.31;95.02;101602.13;5093287;28;20115;-72
2022/04/21 01:27:37;;;;;;;16.20;11.55;;;;;;;5.26;94.83;101601.53;5093633;28;20043;-74
2022/04/21 01:30:05;;;;;;;17.02;11.00;;;;;;;5.22;94.89;101600.84;5093161;28;20056;-71
2022/04/21 01:32:35;;;;;;;18.60;11.15;;;;;;;5.17;95.06;101597.63;5093375;28;20073;-71
2022/04/21 01:35:01;;;;;;;17.40;11.88;;;;;;;5.13;94.74;101598.72;5093237;28;20036;-71
2022/04/21 01:42:55;;;;;;;17.20;11.23;;;;;;;5.01;95.12;101600.25;5093645;28;20555;-72
2022/04/21 01:45:20;;;;;;;16.42;11.85;;;;;;;4.99;95.55;101594.22;5058017;28;20110;-72
2022/04/21 01:47:46;;;;;;;16.33;11.10;;;;;;;4.95;95.68;101590.88;5092657;28;20028;-73
2022/04/21 01:50:11;;;;;;;17.00;10.50;;;;;;;4.90;95.32;101595.56;5092984;28;20028;-72
2022/04/21 01:52:37;;;;;;;15.57;10.95;;;;;;;4.87;95.14;101595.72;5093559;28;20051;-73
2022/04/21 01:55:04;;;;;;;15.60;11.50;;;;;;;4.85;95.68;101584.44;5058685;28;20032;-72
2022/04/21 01:57:30;;;;;;;17.25;11.77;;;;;;;4.83;96.02;101578.38;5074912;28;20050;-72
2022/04/21 01:59:55;;;;;;;16.27;11.73;;;;;;;4.85;96.25;101580.91;5075456;28;20446;-72
2022/04/21 02:02:20;;;;;;;15.82;11.02;;;;;;;4.84;96.67;101585.34;5096927;28;20108;-72
2022/04/21 02:04:46;;;;;;;16.98;11.98;;;;;;;4.81;96.22;101582.88;5061846;28;20059;-71
2022/04/21 02:07:11;;;;;;;17.27;11.50;;;;;;;4.79;96.26;101583.91;5096887;28;20107;-72
2022/04/21 02:09:37;;;;;;;17.52;12.00;;;;;;;4.76;96.74;101585.78;5096626;28;20472;-71
2022/04/21 02:12:02;;;;;;;18.17;10.60;;;;;;;4.74;96.80;101584.16;5097047;28;20107;-72
2022/04/21 02:14:28;;;;;;;15.77;11.05;;;;;;;4.70;96.36;101578.22;5078336;28;20036;-72
2022/04/21 02:16:53;;;;;;;21.27;12.20;;;;;;;4.66;96.16;101578.44;5096630;28;20063;-72
2022/04/21 02:19:18;;;;;;;13.88;10.73;;;;;;;4.63;96.39;101576.81;5078289;28;20039;-71
2022/04/21 02:21:44;;;;;;;18.60;12.10;;;;;;;4.62;96.44;101576.91;5078231;28;20040;-73
2022/04/21 02:24:09;;;;;;;15.95;11.88;;;;;;;4.61;96.59;101580.47;5096142;28;20102;-72
2022/04/21 02:26:34;;;;;;;16.80;11.95;;;;;;;4.58;96.81;101579.72;5096643;28;20115;-71
2022/04/21 02:29:00;;;;;;;17.27;11.85;;;;;;;4.58;96.77;101579.72;5096308;28;20033;-71
2022/04/21 02:31:25;;;;;;;22.17;11.82;;;;;;;4.57;97.45;101571.88;5096544;28;20028;-71
2022/04/21 02:33:50;;;;;;;22.65;12.18;;;;;;;4.57;97.54;101575.38;5096258;28;20031;-71
2022/04/21 02:36:16;;;;;;;15.95;11.98;;;;;;;4.58;97.51;101582.34;5096308;28;20364;-71
2022/04/21 02:38:41;;;;;;;13.98;10.45;;;;;;;4.59;97.77;101578.75;5096013;28;20122;-71
2022/04/21 02:41:07;;;;;;;16.48;11.48;;;;;;;4.59;97.59;101573.50;5096233;28;20134;-71
2022/04/21 02:43:32;;;;;;;18.67;11.93;;;;;;;4.58;97.59;101573.56;5095988;28;20060;-71
2022/04/21 02:45:58;;;;;;;17.05;12.02;;;;;;;4.55;97.67;101568.47;5096185;28;20114;-73
2022/04/21 02:48:23;;;;;;;16.60;11.15;;;;;;;4.53;97.54;101570.34;5096572;28;20032;-71
2022/04/21 02:50:49;;;;;;;20.60;12.70;;;;;;;4.49;97.62;101574.06;5096224;28;20138;-74
2022/04/21 02:53:17;;;;;;;17.92;11.65;;;;;;;4.46;97.75;101569.81;5061573;28;20521;-72
2022/04/21 02:58:27;;;;;;;15.65;11.77;;;;;;;4.39;97.70;101573.72;5096449;28;20062;-72
2022/04/21 03:00:52;;;;;;;17.98;10.93;;;;;;;4.36;97.79;101577.38;5095657;28;20032;-72
2022/04/21 03:03:18;;;;;;;15.35;10.98;;;;;;;4.31;97.68;101574.09;5044325;28;20119;-72
2022/04/21 03:05:43;;;;;;;19.60;11.00;;;;;;;4.28;97.14;101579.53;5077610;28;20392;-71
2022/04/21 03:08:08;;;;;;;19.23;11.65;;;;;;;4.25;97.41;101574.44;5095922;28;20102;-72
2022/04/21 03:10:34;;;;;;;17.15;11.57;;;;;;;4.22;97.51;101572.81;5095671;28;20032;-71
2022/04/21 03:12:59;;;;;;;19.92;12.32;;;;;;;4.17;97.79;101574.84;5094905;28;20036;-73
2022/04/21 03:15:25;;;;;;;15.60;10.98;;;;;;;4.14;98.06;101582.91;5095606;28;20039;-72
2022/04/21 03:17:50;;;;;;;15.18;10.88;;;;;;;4.11;98.04;101569.88;5095190;28;20546;-73
2022/04/21 03:25:44;;;;;;;16.85;10.77;;;;;;;4.03;98.35;101566.78;5095651;28;20495;-71
2022/04/21 03:28:10;;;;;;;16.98;11.80;;;;;;;4.03;98.42;101572.03;5077135;28;20052;-71
2022/04/21 03:30:36;;;;;;;13.82;10.38;;;;;;;4.01;98.05;101564.22;5095934;28;20107;-71
2022/04/21 03:33:01;;;;;;;17.60;11.00;;;;;;;4.01;97.63;101563.38;5095606;28;20036;-71
2022/04/21 03:35:27;;;;;;;16.73;11.30;;;;;;;4.05;98.10;101567.56;5094659;28;20046;-71
2022/04/21 03:37:52;;;;;;;19.58;10.85;;;;;;;4.09;98.53;101573.53;5094700;28;20035;-73
2022/04/21 03:40:18;;;;;;;19.92;10.75;;;;;;;4.16;98.82;101574.91;5094898;28;20028;-72
2022/04/21 03:42:43;;;;;;;15.60;10.82;;;;;;;4.20;99.42;101571.19;5076765;28;20048;-71
2022/04/21 03:45:09;;;;;;;16.45;10.77;;;;;;;4.24;99.42;101581.50;5076791;28;20480;-71
2022/04/21 03:47:34;;;;;;;19.13;11.07;;;;;;;4.29;99.69;101575.97;5095559;28;20032;-71
2022/04/21 03:49:59;;;;;;;19.90;11.40;;;;;;;4.31;99.25;101570.63;5095046;28;20059;-71
2022/04/21 03:52:25;;;;;;;15.50;11.02;;;;;;;4.30;98.95;101577.69;5095830;28;20118;-71
2022/04/21 03:54:50;;;;;;;16.65;11.55;;;;;;;4.32;99.02;101569.69;5094394;28;20473;-72
2022/04/21 03:57:15;;;;;;;17.85;10.75;;;;;;;4.38;98.92;101574.66;5094829;28;20074;-72
2022/04/21 03:59:41;;;;;;;15.00;10.75;;;;;;;4.36;99.02;101566.81;5076431;28;20123;-72
2022/04/21 04:02:06;;;;;;;13.20;9.90;;;;;;;4.45;99.07;101567.25;5094413;28;20066;-72
2022/04/21 04:04:33;;;;;;;15.15;9.85;;;;;;;4.48;99.01;101569.72;5094622;28;20349;-72
2022/04/21 04:12:44;;;;;;;14.02;9.70;;;;;;;4.50;97.38;101573.97;5031866;28;20150;-71
2022/04/21 04:15:10;;;;;;;14.93;9.35;;;;;;;4.49;97.28;101571.44;5080716;28;20092;-73
2022/04/21 04:17:36;;;;;;;13.05;8.82;;;;;;;4.48;97.15;101567.97;5075970;28;20168;-72
2022/04/21 04:20:03;;;;;;;11.68;9.23;;;;;;;4.48;97.56;101569.72;5076207;28;20353;-73
2022/04/21 04:22:28;;;;;;;16.95;9.25;;;;;;;4.45;97.59;101565.50;5076245;28;20040;-72
2022/04/21 04:24:56;;;;;;;14.98;9.95;;;;;;;4.47;97.56;101568.03;5093179;28;20058;-72
2022/04/21 04:27:22;;;;;;;13.40;9.13;;;;;;;4.43;97.23;101564.69;5094046;28;20054;-71
2022/04/21 04:29:47;;;;;;;15.13;10.23;;;;;;;4.43;97.65;101562.06;5093791;28;20538;-72
2022/04/21 04:32:14;;;;;;;15.73;9.68;;;;;;;4.46;97.97;101564.53;5093860;28;20106;-73
2022/04/21 04:34:40;;;;;;;17.92;11.07;;;;;;;4.48;98.04;101572.34;5076141;28;20173;-71
2022/04/21 04:37:05;;;;;;;15.35;10.02;;;;;;;4.49;98.08;101569.63;5094058;28;20032;-72
2022/04/21 04:39:31;;;;;;;15.57;10.05;;;;;;;4.53;98.16;101571.19;5094109;28;20048;-72
2022/04/21 04:44:40;;;;;;;12.27;9.30;;;;;;;4.61;98.58;101577.84;5093808;28;20168;-71
2022/04/21 04:47:05;;;;;;;14.57;9.95;;;;;;;4.61;98.21;101576.03;5093415;28;20028;-72
2022/04/21 04:49:30;;;;;;;13.00;10.43;;;;;;;4.61;98.22;101575.19;5058995;28;20464;-72
2022/04/21 04:51:56;;;;;;;14.90;9.52;;;;;;;4.61;98.45;101578.69;5094260;28;20089;-71
2022/04/21 04:54:21;;;;;;;14.93;10.43;;;;;;;4.63;98.62;101566.28;5093723;28;20029;-71
2022/04/21 04:56:48;;;;;;;17.60;11.45;;;;;;;4.67;98.84;101573.09;5075131;28;20044;-71
2022/04/21 04:59:14;;;;;;;16.50;10.98;;;;;;;4.70;98.82;101575.56;5093411;28;20039;-71
2022/04/21 05:01:41;;;;;;;16.85;10.80;;;;;;;4.72;98.63;101572.84;5093508;28;20023;-73
2022/04/21 05:04:08;;;;;;;18.13;10.80;;;;;;;4.74;98.33;101573.59;5075779;28;20119;-72
2022/04/21 05:06:39;;;;;;;17.35;10.02;;;;;;;4.75;98.14;101573.53;5075110;28;20027;-71
2022/04/21 05:09:06;;;;;;;13.77;10.32;;;;;;;4.79;98.00;101582.09;5093500;28;20032;-72
2022/04/21 05:11:35;;;;;;;15.27;9.77;;;;;;;4.82;98.11;101578.47;5093379;28;20485;-72
2022/04/21 05:14:02;;;;;;;14.68;10.20;;;;;;;4.94;97.63;101583.06;5075179;28;20028;-72
2022/04/21 05:16:28;;;;;;;14.43;9.75;;;;;;;5.04;97.74;101589.53;5093155;28;20130;-71
2022/04/21 05:18:54;;;;;;;17.02;9.52;;;;;;;5.12;97.26;101579.41;5093808;28;20039;-72
2022/04/21 05:21:20;;;;;;;16.27;9.73;;;;;;;5.20;96.83;101581.63;5075122;28;20039;-72
2022/04/21 05:23:47;;;;;;;13.82;9.27;;;;;;;5.28;96.77;101584.69;5093276;28;20028;-71
2022/04/21 05:26:16;;;;;;;15.70;9.18;;;;;;;5.36;96.54;101576.34;5074722;28;20043;-73
2022/04/21 05:28:45;;;;;;;14.88;9.30;;;;;;;5.44;96.21;101584.66;5075113;28;20028;-72
2022/04/21 05:31:11;;;;;;;12.50;9.73;;;;;;;5.56;96.17;101584.91;5093484;28;20036;-73
2022/04/21 05:33:37;;;;;;;12.10;9.32;;;;;;;5.70;95.77;101589.38;5092976;28;20067;-73
2022/04/21 05:36:04;;;;;;;14.70;9.65;;;;;;;5.82;95.43;101586.88;5092389;28;20024;-73
2022/04/21 05:38:30;;;;;;;19.05;9.05;;;;;;;5.96;94.57;101579.94;5075454;28;20081;-72
2022/04/21 05:40:56;;;;;;;12.60;9.18;;;;;;;6.08;93.31;101587.16;5092939;28;20024;-75
2022/04/21 05:43:28;;;;;;;11.30;8.38;;;;;;;6.22;92.15;101591.59;5093575;28;20050;-74
2022/04/21 05:45:53;;;;;;;14.40;8.05;;;;;;;6.36;91.67;101590.78;5093099;28;20031;-73
2022/04/21 05:48:19;;;;;;;14.13;8.98;;;;;;;6.48;91.04;101597.13;5075517;28;20028;-74
2022/04/21 05:50:48;;;;;;;12.32;7.97;;;;;;;6.61;90.38;101592.75;5058778;28;20036;-73
2022/04/21 05:53:20;;;;;;;14.10;8.38;;;;;;;6.73;89.77;101590.28;5092648;28;20036;-73
2022/04/21 05:55:45;;;;;;;12.50;8.13;;;;;;;6.83;88.23;101586.13;5092876;28;20032;-73
2022/04/21 05:58:11;;;;;;;10.60;7.15;;;;;;;6.99;87.64;101581.56;5092975;28;20040;-74
2022/04/21 06:00:37;;;;;;;11.50;7.90;;;;;;;7.09;86.31;101578.34;5092828;28;20032;-74
2022/04/21 06:03:03;;;;;;;11.40;7.47;;;;;;;7.21;86.72;101582.81;5074544;28;20027;-73
2022/04/21 06:05:28;;;;;;;10.88;7.80;;;;;;;7.32;86.30;101585.66;5074906;28;20032;-75
2022/04/21 06:07:53;;;;;;;12.38;7.32;;;;;;;7.43;85.99;101595.53;5092952;28;20036;-72
2022/04/21 06:10:19;;;;;;;12.98;7.90;;;;;;;7.54;85.42;101595.69;5092749;28;20028;-73
2022/04/21 06:12:44;;;;;;;18.35;7.30;;;;;;;7.68;84.74;101591.28;5074477;28;20036;-73
2022/04/21 06:15:09;;;;;;;22.30;7.10;;;;;;;7.80;83.57;101597.56;5057551;28;20036;-77
2022/04/21 06:17:35;;;;;;;10.02;7.22;;;;;;;7.90;83.02;101590.69;5092305;28;20028;-73
2022/04/21 06:20:00;;;;;;;10.75;7.05;;;;;;;8.04;83.18;101597.72;5074955;28;20460;-73
2022/04/21 06:22:26;;;;;;;14.25;6.88;;;;;;;8.17;82.36;101598.56;5092451;28;20058;-73
2022/04/21 06:24:51;;;;;;;10.60;6.72;;;;;;;8.28;81.48;101597.81;5092166;28;20036;-74
2022/04/21 06:27:16;;;;;;;10.98;6.72;;;;;;;8.41;81.06;101589.88;5092286;28;20107;-75
2022/04/21 06:29:42;;;;;;;9.02;7.10;;;;;;;8.52;80.29;101590.00;5092843;28;20115;-73
2022/04/21 06:32:07;;;;;;;9.93;6.78;;;;;;;8.62;79.18;101585.75;5092726;28;20085;-75
2022/04/21 06:34:33;;;;;;;9.77;6.18;;;;;;;8.75;78.82;101584.91;5074177;28;20078;-73
2022/04/21 06:37:01;;;;;;;12.35;6.68;;;;;;;8.87;78.59;101581.38;5093159;28;20417;-74
2022/04/21 06:39:27;;;;;;;11.73;6.60;;;;;;;8.99;78.55;101587.59;5092910;28;20032;-74
2022/04/21 06:41:52;;;;;;;8.80;6.28;;;;;;;9.10;77.55;101585.00;5092375;28;20102;-74
2022/04/21 06:49:45;;;;;;;8.48;5.88;;;;;;;9.34;74.17;101579.72;5096019;28;20082;-73
2022/04/21 06:52:11;;;;;;;11.70;6.63;;;;;;;9.44;74.03;101571.91;5096155;28;20036;-74
2022/04/21 06:54:36;;;;;;;11.43;6.53;;;;;;;9.43;72.73;101574.69;5095916;28;20035;-74
2022/04/21 06:57:02;;;;;;;9.43;6.20;;;;;;;9.51;72.77;101575.81;5096158;28;20345;-75
2022/04/21 06:59:27;;;;;;;14.65;6.28;;;;;;;9.64;73.70;101577.53;5077717;28;20384;-74
2022/04/21 07:01:52;;;;;;;10.32;5.75;;;;;;;9.74;73.80;101577.72;5096010;28;20036;-74
2022/04/21 07:04:18;;;;;;;8.18;6.15;;;;;;;9.73;71.78;101571.53;5095609;28;20029;-73
2022/04/21 07:06:43;;;;;;;8.55;6.10;;;;;;;9.76;70.31;101581.09;5095715;28;20456;-75
2022/04/21 07:09:09;;;;;;;9.02;5.47;;;;;;;9.85;71.91;101577.72;5096385;28;20028;-74
2022/04/21 07:11:34;;;;;;;7.30;5.72;;;;;;;9.97;72.54;101575.97;5095142;28;20028;-74
2022/04/21 07:14:00;;;;;;;8.75;5.78;;;;;;;10.07;71.70;101572.47;5095554;28;20484;-73
2022/04/21 07:16:25;;;;;;;9.43;6.32;;;;;;;10.15;71.10;101581.66;5095911;28;20032;-75
2022/04/21 07:18:50;;;;;;;8.90;6.07;;;;;;;10.28;71.00;101582.41;5096132;28;20116;-73
2022/04/21 07:21:16;;;;;;;10.70;5.88;;;;;;;10.39;71.28;101579.81;5095665;28;20028;-72
2022/04/21 07:23:44;;;;;;;8.43;6.05;;;;;;;10.44;70.82;101581.28;5095420;28;20031;-72
2022/04/21 07:26:10;;;;;;;14.80;6.18;;;;;;;10.61;69.80;101579.94;5077952;28;20372;-74
2022/04/21 07:28:36;;;;;;;11.90;6.20;;;;;;;10.66;67.76;101575.97;5095433;28;20028;-72
2022/04/21 07:31:02;;;;;;;7.70;5.47;;;;;;;10.74;67.49;101578.84;5095699;28;20107;-73
2022/04/21 07:33:27;;;;;;;11.77;5.63;;;;;;;10.93;67.79;101585.38;5095023;28;20503;-72
2022/04/21 07:35:52;;;;;;;11.77;5.78;;;;;;;10.99;66.85;101581.34;5095364;28;20502;-72
2022/04/21 07:38:18;;;;;;;9.43;5.63;;;;;;;11.04;66.18;101576.50;5077134;28;20032;-72
2022/04/21 07:40:43;;;;;;;8.60;5.60;;;;;;;11.16;66.90;101582.66;5095125;28;20373;-75
2022/04/21 07:43:09;;;;;;;8.63;6.38;;;;;;;11.33;66.65;101579.47;5095090;28;20114;-73
2022/04/21 07:45:38;;;;;;;7.88;5.53;;;;;;;11.36;64.15;101570.34;5095134;28;20073;-73
2022/04/21 07:48:04;;;;;;;6.50;5.25;;;;;;;11.51;65.85;101585.09;5094896;28;20357;-73
2022/04/21 07:50:30;;;;;;;7.60;5.85;;;;;;;11.55;64.29;101580.34;5076467;28;20028;-73
2022/04/21 07:53:13;;;;;;;9.35;5.72;;;;;;;11.77;65.23;101577.59;5095402;28;20081;-73
2022/04/21 07:55:40;;;;;;;6.55;5.82;;;;;;;12.08;63.87;101569.69;5095137;28;20032;-73
2022/04/21 07:58:06;;;;;;;9.77;5.70;;;;;;;12.35;62.10;101577.13;5094755;28;20028;-73
2022/04/21 08:00:34;;;;;;;8.10;5.50;;;;;;;12.61;62.45;101566.00;5095607;28;20032;-74
2022/04/21 08:02:59;;;;;;;9.80;5.30;;;;;;;12.87;60.20;101561.03;5094744;28;20047;-73
2022/04/21 08:05:25;;;;;;;10.90;5.43;;;;;;;13.03;59.78;101570.34;5076240;28;20388;-72
2022/04/21 08:07:51;;;;;;;8.48;4.93;;;;;;;13.46;59.14;101571.00;5095136;28;20169;-74
2022/04/21 08:10:18;;;;;;;6.95;5.00;;;;;;;13.76;57.52;101564.66;5094653;28;20039;-75
2022/04/21 08:12:48;;;;;;;8.95;4.75;;;;;;;13.99;55.87;101573.22;5094482;28;20115;-76
2022/04/21 08:15:21;;;;;;;10.73;4.88;;;;;;;14.54;55.72;101577.00;5095224;28;20166;-74
2022/04/21 08:17:46;;;;;;;7.45;5.10;;;;;;;14.79;52.88;101576.38;5094658;28;20028;-73
2022/04/21 08:20:12;;;;;;;9.50;4.70;;;;;;;15.26;52.73;101577.22;5076766;28;20376;-75
2022/04/21 08:22:37;;;;;;;13.05;5.03;;;;;;;15.47;52.59;101584.97;5094413;28;20035;-73
2022/04/21 08:33:16;;;;;;;5.15;4.55;;;;;;;16.24;47.86;101579.88;5094401;28;20051;-72
2022/04/21 08:35:44;;;;;;;7.43;4.68;;;;;;;16.36;47.42;101575.94;5094460;28;20020;-72
2022/04/21 08:38:10;;;;;;;5.95;4.35;;;;;;;16.29;48.75;101576.75;5094138;28;20035;-73
2022/04/21 08:40:37;;;;;;;7.65;3.88;;;;;;;16.36;47.48;101573.25;5094396;28;20058;-73
2022/04/21 08:43:14;;;;;;;6.07;4.50;;;;;;;16.50;48.29;101585.25;5094858;28;20491;-72
2022/04/21 08:45:42;;;;;;;13.27;5.13;;;;;;;16.40;47.79;101585.34;5075659;28;20082;-73
2022/04/21 08:48:10;;;;;;;8.00;4.57;;;;;;;16.53;46.75;101578.72;5093662;28;20036;-72
2022/04/21 08:50:36;;;;;;;7.50;4.55;;;;;;;16.32;46.15;101581.78;5093993;28;20036;-73
2022/04/21 08:53:03;;;;;;;8.65;4.10;;;;;;;16.52;46.32;101583.22;5094065;28;20035;-72
2022/04/21 08:55:28;;;;;;;12.38;4.75;;;;;;;16.90;46.83;101580.25;5075837;28;20464;-72
2022/04/21 08:57:54;;;;;;;5.95;4.40;;;;;;;17.42;46.33;101581.88;5075705;28;20039;-72
2022/04/21 09:00:20;;;;;;;7.72;3.80;;;;;;;17.79;44.25;101577.84;5093824;28;20043;-73
2022/04/21 09:02:47;;;;;;;6.07;3.88;;;;;;;18.27;42.27;101578.84;5076052;28;20446;-71
2022/04/21 09:05:12;;;;;;;6.32;3.78;;;;;;;18.94;40.94;101574.06;5094035;28;20031;-71
2022/04/21 09:07:45;;;;;;;6.07;3.55;;;;;;;19.84;38.32;101578.00;5093342;28;20468;-73
2022/04/21 09:10:11;;;;;;;7.32;3.20;;;;;;;20.67;36.43;101573.44;5093153;28;20027;-74
2022/04/21 09:12:48;;;;;;;5.28;3.58;;;;;;;20.57;36.65;101562.06;5094209;28;20089;-73
2022/04/21 09:15:16;;;;;;;5.07;3.60;;;;;;;21.66;34.52;101566.63;5093986;28;20067;-72
2022/04/21 09:17:45;;;;;;;5.65;3.40;;;;;;;22.41;33.69;101569.72;5093987;28;20039;-73
2022/04/21 09:20:13;;;;;;;6.28;3.60;;;;;;;22.53;33.27;101562.69;5093567;28;20020;-73
2022/04/21 09:22:42;;;;;;;7.53;3.33;;;;;;;23.10;32.75;101567.94;5093420;28;20032;-72
2022/04/21 09:25:08;;;;;;;5.47;3.38;;;;;;;22.84;32.38;101560.50;5093497;28;20027;-74
2022/04/21 09:27:48;;;;;;;6.10;3.53;;;;;;;23.16;31.96;101566.28;5093378;28;20025;-74
2022/04/21 09:30:14;;;;;;;4.72;3.83;;;;;;;23.06;31.58;101564.78;5094152;28;20123;-73
2022/04/21 09:32:49;;;;;;;6.45;3.78;;;;;;;22.80;32.84;101557.38;5093589;28;20119;-73
2022/04/21 09:35:15;;;;;;;5.55;3.90;;;;;;;22.54;33.14;101547.22;5094007;28;20081;-72
2022/04/21 09:38:02;;;;;;;5.55;3.90;;;;;;;23.34;31.75;101550.22;5094093;28;20036;-72
2022/04/21 09:40:29;;;;;;;4.75;3.55;;;;;;;23.44;31.13;101549.81;5093417;28;20032;-73
2022/04/21 09:42:58;;;;;;;4.75;3.72;;;;;;;23.72;31.20;101548.78;5093283;28;20131;-73
2022/04/21 09:48:29;;;;;;;5.65;3.20;;;;;;;24.26;29.65;101541.44;5078541;28;20043;-73
2022/04/21 09:51:06;;;;;;;6.60;3.38;;;;;;;24.71;28.82;101541.50;5093195;28;20388;-73
2022/04/21 09:53:47;;;;;;;5.68;3.33;;;;;;;24.43;29.67;101544.50;5093361;28;20032;-72
2022/04/21 09:56:12;;;;;;;6.68;3.72;;;;;;;24.62;28.35;101535.47;5094406;28;20040;-75
2022/04/21 09:58:39;;;;;;;7.72;3.53;;;;;;;24.11;30.12;101547.94;5098241;28;20035;-75
2022/04/21 10:01:05;;;;;;;5.53;3.50;;;;;;;24.03;30.08;101540.00;5095446;28;20430;-73
2022/04/21 10:03:34;;;;;;;4.50;3.42;;;;;;;24.35;28.97;101540.16;5094401;28;20028;-75
2022/04/21 10:06:00;;;;;;;7.13;3.78;;;;;;;24.47;28.39;101534.88;5079048;28;20408;-73
2022/04/21 10:08:26;;;;;;;7.97;3.90;;;;;;;23.52;29.10;101522.44;5077072;28;20376;-73
2022/04/21 10:10:53;;;;;;;5.07;3.70;;;;;;;24.20;29.09;101525.94;5093780;28;20047;-73
2022/04/21 10:13:18;;;;;;;5.20;3.65;;;;;;;24.41;29.43;101520.25;5092791;28;20191;-74
2022/04/21 10:15:44;;;;;;;9.43;4.22;;;;;;;23.70;29.19;101521.00;5092844;28;20487;-73
2022/04/21 10:18:12;;;;;;;6.40;3.90;;;;;;;24.58;28.77;101515.19;5092691;28;20498;-72
2022/04/21 10:20:40;;;;;;;5.18;3.60;;;;;;;24.55;28.52;101512.88;5092928;28;20515;-72
2022/04/21 10:23:10;;;;;;;12.60;3.70;;;;;;;24.04;29.01;101510.97;5096554;28;20032;-73
2022/04/21 10:25:38;;;;;;;6.27;3.70;;;;;;;24.19;28.69;101516.97;5096943;28;20020;-72
2022/04/21 10:28:39;;;;;;;7.82;3.33;;;;;;;24.23;28.24;101515.50;5096636;28;20259;-72
2022/04/21 10:31:33;;;;;;;7.15;3.80;;;;;;;24.10;27.90;101510.91;5097265;28;20151;-72
2022/04/21 10:33:59;;;;;;;11.90;3.53;;;;;;;24.06;28.09;101504.22;5078147;28;20460;-72
2022/04/21 10:36:41;;;;;;;4.30;3.13;;;;;;;23.77;28.20;101508.25;5097248;28;20047;-72
2022/04/21 10:39:24;;;;;;;8.02;3.13;;;;;;;24.05;28.24;101502.59;5097151;28;20056;-72
2022/04/21 10:42:17;;;;;;;9.15;3.78;;;;;;;24.43;26.74;101495.56;5096197;28;20406;-72
2022/04/21 10:44:46;;;;;;;4.25;3.20;;;;;;;24.09;27.83;101495.69;5073788;28;20440;-73
2022/04/21 10:47:27;;;;;;;5.03;3.13;;;;;;;24.01;25.40;101490.47;5096358;28;20091;-73
2022/04/21 10:49:56;;;;;;;;;;;;;;;23.95;27.47;101494.03;5096422;28;20077;-73
2022/04/21 10:57:50;;;;;;;3.35;2.58;;;;;;;25.43;24.58;101489.53;5096117;28;20039;-73
2022/04/21 11:00:29;;;;;;;4.18;2.45;;;;;;;25.96;24.46;101482.75;5077633;28;20115;-73
2022/04/21 11:03:06;;;;;;;6.88;2.80;;;;;;;25.19;24.97;101476.75;5096277;28;20031;-72
2022/04/21 11:05:34;;;;;;;2.80;2.60;;;;;;;25.52;23.38;101479.19;5096117;28;20034;-73
2022/04/21 11:08:03;;;;;;;9.45;3.38;;;;;;;25.34;24.35;101477.25;5095809;28;20443;-73
2022/04/21 11:10:37;;;;;;;5.50;2.70;;;;;;;25.66;23.63;101472.59;5096141;28;20039;-78
2022/04/21 11:13:04;;;;;;;3.90;2.58;;;;;;;25.17;22.75;101464.16;5096196;28;20031;-74
2022/04/21 11:15:39;;;;;;;3.85;2.42;;;;;;;25.15;23.61;101473.59;5078249;28;20089;-74
2022/04/21 11:18:19;;;;;;;4.85;2.38;;;;;;;25.08;24.84;101473.66;5095398;28;20036;-74
2022/04/21 11:20:47;;;;;;;4.47;2.53;;;;;;;25.15;22.50;101465.44;5095442;28;20059;-77
2022/04/21 11:23:45;;;;;;;5.28;2.58;;;;;;;25.11;23.39;101464.22;5095564;28;20031;-75
2022/04/21 11:26:11;;;;;;;4.10;2.63;;;;;;;25.39;24.70;101457.53;5095027;28;20428;-75
2022/04/21 11:28:42;;;;;;;5.47;2.70;;;;;;;25.15;23.90;101462.72;5095529;28;20032;-74
2022/04/21 11:31:07;;;;;;;;;;;;;;;25.25;23.82;101454.88;5096450;28;20032;-74
2022/04/21 11:33:35;;;;;;;8.68;2.72;;;;;;;25.52;23.58;101460.13;5094902;28;19957;-72
2022/04/21 11:36:12;;;;;;;3.72;2.50;;;;;;;26.10;22.81;101452.66;5095706;28;20040;-73
2022/04/21 11:38:42;;;;;;;3.08;2.50;;;;;;;25.63;23.00;101450.38;5095490;28;20503;-73
2022/04/21 11:41:09;;;;;;;7.27;2.40;;;;;;;26.09;22.38;101453.72;5094898;28;20083;-74
2022/04/21 11:43:36;;;;;;;4.63;2.47;;;;;;;25.26;22.46;101450.25;5095088;28;20278;-72
2022/04/21 11:46:05;;;;;;;3.65;2.50;;;;;;;25.47;24.66;101446.38;5095011;28;20036;-72
2022/04/21 11:48:33;;;;;;;5.43;2.03;;;;;;;26.12;22.89;101432.25;5095128;28;20052;-76
2022/04/21 11:50:59;;;;;;;2.83;2.30;;;;;;;25.13;21.35;101437.63;5095067;28;20020;-76
2022/04/21 11:53:28;;;;;;;4.50;2.35;;;;;;;25.14;23.97;101436.53;5095193;28;20059;-74
2022/04/21 11:55:53;;;;;;;2.92;2.17;;;;;;;24.68;24.58;101435.84;5094576;28;20041;-73
2022/04/21 11:58:45;;;;;;;4.95;2.03;;;;;;;25.78;22.05;101431.81;5094795;28;20020;-74
2022/04/21 12:06:51;;;;;;;5.43;2.40;;;;;;;25.50;23.72;101426.84;5095013;28;20039;-73
2022/04/21 12:09:28;;;;;;;9.27;2.22;;;;;;;26.01;22.86;101427.59;5094550;28;20107;-73
2022/04/21 12:11:57;;;;;;;3.67;2.38;;;;;;;26.35;22.04;101438.91;5094634;28;20114;-75
2022/04/21 12:14:23;;;;;;;4.50;2.30;;;;;;;26.12;20.96;101425.97;5094596;28;20085;-73
2022/04/21 12:16:53;;;;;;;3.08;2.28;;;;;;;26.31;22.14;101419.44;5094488;28;20028;-74
2022/04/21 12:19:18;;;;;;;2.65;2.35;;;;;;;26.20;20.86;101418.31;5094466;28;20024;-74